Terminal Aerodrome Forecast
Issued by NWS

Home | Current Version | Previous Version | Text Only | Print | Product List | Glossary On
Versions: 1 2 3 4 5 6 7 8 9 10 11 12 13 14 15 16 17 18 19 20 21 22 23 24 25 26 27 28 29 30 31
000
FTUS43 KDLH 291300 AAA
TAFHYR
TAF AMD
KHYR 291335Z 2914/3012 04011KT P6SM SCT014 OVC045
      TEMPO 2914/2917 5SM -SHRA BR BKN010 OVC012
     FM291900 05008KT P6SM BKN025
     FM300700 VRB03KT 5SM BR OVC006=

USA.gov is the U.S. government's official web portal to all federal, state and local government web resources and services.